Flugplatz Neustadt/Aisch (EDQN)

Hier findest Du alle Informationen zum Flugplatz Neustadt/Aisch (EDQN).

Informationen für Piloten zum Flugplatz Neustadt/Aisch

Hier findest Du alle relevanten Informationen, die Du als Pilot benötigst, um Neustadt/Aisch anzufliegen.

Flugplatz: Neustadt/Aisch ICAO-Code: EDQN
Frequenz Turm: 118,925 Mhz GAFOR Gebiet: 55
Frequenz Ground: 118,925 Mhz Mogas: nein
Platzrunde: N 2000 ft Landegebühr: -
Platzhöhe: 1.198 ft Sunrise: 04:14 Uhr UTC
Pisten: 09/27 - 600 m x 15 m, ASPH Sunset: 18:18 Uhr UTC

Mitglieder, die in Neustadt/Aisch fliegen

Flugwetter am Flugplatz Neustadt/Aisch

Die METAR Information stammen aus EDDN (37.46 km entfernt).

METAR Code:
2024/04/10 06:50
EDDN 100650Z AUTO 28007KT 9999 FEW047 08/04 Q1027 NOSIG

Flugschulen am Flugplatz Neustadt/Aisch

Am Flugplatz Neustadt/Aisch gibt es leider keine Flugschule.

Benachbarte Flugplätze und Flugschulen

Es gibt 20 weitere Flugplätze in einem Umkreis von 50 km um den Flugplatz Neustadt/Aisch.

Jetzt anmelden

Passwort vergessen

Umfrage Archiv

Wie häufig haltet Ihr die Halbkreisflugregel ein?

Eher häufig!
34.5 %
Immer!
32.4 %
Hin und wieder!
16.4 %
Nie!
9.2 %
Eher selten!
7.6 %
Stimmen: 238 | Diskussion
Anzeige: Roland Aircraft
Statistik Alle Mitglieder

Aktuell sind 27 Besucher online, davon 1 Mitglied und 26 Gäste.


Mitglieder online:
ronnski 

Anzeige: EasyVFR